Portada
METAR-TAF:

METAR-TAF

Aeropuertos :

Puerto España, Trinidad, Trinidad y Tobago

Aeropuerto Internacional de Piarco

latitud: 10-37N, longitud: 061-21W, altitud: 12 m

Observación

El informe se hizo hace 1 hora y 9 minutos, a las 13:00 UTC
Viento 11 kt del este-sureste
Temperatura 29°C
Humedad 70%
Presión 1013 hPa
Visibilidad 10 km o más
Nubes dispersas a una altura de 1800 ft

METAR: TTPP 221300Z 11011KT 9999 SCT018 29/23 Q1013 NOSIG

Hora: 10:09 (14:09 UTC)

Pronóstico

El informe se hizo hace 4 horas y 9 minutos, a las 10:00 UTC
Pronóstico válido del 22 a las 12 UTC al 23 a las 12 UTC
Viento 12 kt del este
Visibilidad 10 km o más
Escasas nubes a una altura de 1800 ft

TAF: TTPP 221000Z 2212/2312 10012KT 9999 FEW018

Observaciones y pronósticos meteorológicos de más de 4000 aeropuertos (mensajes METAR y TAF).

Los puntos amarillos y rojos representan las estaciones disponibles.

Ponga el ratón en el punto deseado para ver el nombre de la estación.

Haga clic para ver las observaciones y los pronósticos meteorológicos.

Para cambiar el mapa : haga clic en los botones verdes con una cruz de color negro para hacer un zoom, en el botón verde con un guión para alejar o en las flechas verdes para mapas adyacentes.


METAR-TAF: